Time;durP1;ratioP1;P1;durP2;ratioP2;P2;SDS_P1;SDS_P2;PMS_P1;PMS_P2;Temp;Humidity;BMP_temperature;BMP_pressure;BME280_temperature;BME280_humidity;BME280_pressure;Samples;Min_cycle;Max_cycle;Signal;HPM_P1;HPM_P2
2021/05/30 00:00:47;;;;;;;5.32;2.58;;;10.80;81.50;;;;;;4987846;28;20046;-85
2021/05/30 00:03:13;;;;;;;4.80;2.50;;;10.80;81.20;;;;;;4976138;28;20034;-84
2021/05/30 00:05:39;;;;;;;3.38;2.35;;;10.70;80.70;;;;;;4989467;28;20404;-84
2021/05/30 00:08:06;;;;;;;5.40;2.58;;;10.70;80.60;;;;;;4976909;28;20138;-86
2021/05/30 00:10:32;;;;;;;3.78;2.80;;;10.70;79.70;;;;;;4994819;28;19999;-84
2021/05/30 00:12:57;;;;;;;3.90;2.60;;;10.70;79.80;;;;;;5014388;28;20128;-86
2021/05/30 00:15:23;;;;;;;3.63;2.35;;;10.60;79.50;;;;;;5004125;28;20030;-89
2021/05/30 00:17:49;;;;;;;7.05;2.40;;;10.60;79.40;;;;;;4990904;28;20178;-87
2021/05/30 00:20:15;;;;;;;2.85;2.42;;;10.50;79.50;;;;;;4990793;28;20061;-89
2021/05/30 00:22:41;;;;;;;3.28;2.35;;;10.50;79.80;;;;;;4988691;28;20073;-87
2021/05/30 00:25:08;;;;;;;4.22;2.20;;;10.40;79.70;;;;;;4978641;28;20022;-89
2021/05/30 00:27:34;;;;;;;5.53;2.45;;;10.40;79.60;;;;;;4989902;28;20461;-88
2021/05/30 00:30:04;;;;;;;5.07;2.42;;;10.40;79.90;;;;;;4977165;28;20066;-88
2021/05/30 00:32:30;;;;;;;7.38;2.30;;;10.40;79.50;;;;;;4987781;28;20038;-88
2021/05/30 00:34:56;;;;;;;3.63;1.85;;;10.40;80.00;;;;;;4969259;28;20038;-89
2021/05/30 00:37:21;;;;;;;5.10;2.85;;;10.40;79.80;;;;;;4967651;28;20126;-89
2021/05/30 00:39:47;;;;;;;7.50;3.20;;;10.40;80.10;;;;;;4969386;28;20023;-88
2021/05/30 00:42:14;;;;;;;6.88;3.17;;;10.40;79.90;;;;;;4978900;28;20562;-88
2021/05/30 00:44:40;;;;;;;4.22;2.85;;;10.40;80.10;;;;;;5015959;28;20513;-89
2021/05/30 00:47:05;;;;;;;5.68;3.03;;;10.40;80.20;;;;;;5020084;28;20030;-87
2021/05/30 00:49:31;;;;;;;2.97;2.35;;;10.40;80.10;;;;;;5001409;28;20018;-89
2021/05/30 00:51:57;;;;;;;4.97;2.50;;;10.40;80.00;;;;;;5019314;28;20021;-88
2021/05/30 00:54:24;;;;;;;5.30;2.88;;;10.30;80.20;;;;;;5017974;28;20021;-87
2021/05/30 00:56:49;;;;;;;5.60;2.63;;;10.30;80.70;;;;;;5018427;28;20029;-90
2021/05/30 00:59:15;;;;;;;4.57;2.88;;;10.30;80.90;;;;;;5027383;28;20045;-89
2021/05/30 01:01:42;;;;;;;4.43;2.55;;;10.30;81.10;;;;;;5037722;28;20021;-86
2021/05/30 01:04:10;;;;;;;3.63;2.55;;;10.30;81.00;;;;;;5024625;28;20065;-88
2021/05/30 01:06:38;;;;;;;4.32;2.60;;;10.20;81.20;;;;;;5027127;28;20100;-87
2021/05/30 01:09:05;;;;;;;4.30;2.60;;;10.20;81.10;;;;;;5042387;28;20029;-90
2021/05/30 01:11:32;;;;;;;9.68;4.40;;;10.20;80.60;;;;;;5047734;28;20486;-87
2021/05/30 01:13:58;;;;;;;5.15;3.20;;;10.20;81.30;;;;;;5044405;28;20125;-86
2021/05/30 01:16:26;;;;;;;3.55;2.72;;;10.20;81.30;;;;;;5038825;28;20021;-87
2021/05/30 01:18:54;;;;;;;4.07;2.35;;;10.10;81.10;;;;;;5039475;28;20096;-87
2021/05/30 01:21:21;;;;;;;4.18;2.40;;;10.20;81.00;;;;;;5020202;28;20025;-91
2021/05/30 01:23:55;;;;;;;4.75;2.83;;;10.10;80.40;;;;;;5038061;28;20025;-89
2021/05/30 01:26:21;;;;;;;3.92;2.20;;;10.10;80.60;;;;;;5037358;28;20029;-90
2021/05/30 01:28:48;;;;;;;3.63;2.15;;;10.10;80.50;;;;;;5019901;28;20029;-90
2021/05/30 01:31:15;;;;;;;4.35;2.65;;;10.00;80.40;;;;;;5046314;28;20092;-88
2021/05/30 01:33:41;;;;;;;5.22;2.47;;;10.00;80.70;;;;;;5053352;28;20037;-88
2021/05/30 01:36:07;;;;;;;3.83;2.60;;;10.00;80.40;;;;;;5055135;28;20028;-88
2021/05/30 01:38:33;;;;;;;3.95;2.10;;;9.90;80.40;;;;;;5050901;28;20057;-88
2021/05/30 01:40:59;;;;;;;5.78;2.90;;;9.90;80.20;;;;;;5025116;28;20018;-93
2021/05/30 01:43:27;;;;;;;4.65;2.75;;;9.90;79.90;;;;;;4999110;28;20030;-91
2021/05/30 01:45:53;;;;;;;8.05;2.85;;;9.90;80.00;;;;;;5006606;28;20577;-92
2021/05/30 01:48:19;;;;;;;4.43;2.80;;;9.90;79.90;;;;;;5008026;28;20034;-93
2021/05/30 01:50:48;;;;;;;4.60;2.53;;;9.80;79.80;;;;;;5013854;28;20147;-92
2021/05/30 01:53:19;;;;;;;3.15;2.10;;;9.80;79.90;;;;;;5015467;28;20042;-89
2021/05/30 01:58:14;;;;;;;3.03;2.00;;;9.80;79.50;;;;;;4999988;28;20026;-85
2021/05/30 02:00:40;;;;;;;4.60;2.30;;;9.80;79.20;;;;;;4994005;28;20044;-84
2021/05/30 02:03:08;;;;;;;2.78;2.00;;;9.70;79.30;;;;;;4993766;28;20581;-88
2021/05/30 02:05:35;;;;;;;8.93;2.38;;;9.70;79.30;;;;;;4993550;28;20095;-85
2021/05/30 02:08:01;;;;;;;4.13;2.22;;;9.70;78.70;;;;;;4984732;28;20186;-86
2021/05/30 02:10:28;;;;;;;7.13;2.53;;;9.70;78.70;;;;;;5000158;28;20029;-88
2021/05/30 02:12:55;;;;;;;5.10;2.83;;;9.70;78.50;;;;;;4995457;28;20137;-87
2021/05/30 02:15:22;;;;;;;3.17;2.50;;;9.60;78.40;;;;;;5006547;28;20039;-86
2021/05/30 02:17:48;;;;;;;2.15;1.95;;;9.60;78.30;;;;;;5011657;28;20069;-86
2021/05/30 02:20:16;;;;;;;4.25;2.40;;;9.60;78.60;;;;;;5022935;28;20041;-88
2021/05/30 02:22:41;;;;;;;3.83;2.10;;;9.60;78.20;;;;;;5034965;28;20029;-89
2021/05/30 02:25:11;;;;;;;3.25;2.50;;;9.60;78.10;;;;;;5017032;28;20032;-88
2021/05/30 02:27:38;;;;;;;6.38;2.33;;;9.50;78.20;;;;;;5017907;28;20030;-87
2021/05/30 02:30:06;;;;;;;3.25;1.92;;;9.50;78.20;;;;;;5002968;28;20048;-89
2021/05/30 02:32:31;;;;;;;7.60;3.42;;;9.50;78.10;;;;;;5016643;28;20038;-86
2021/05/30 02:34:57;;;;;;;3.40;2.03;;;9.50;77.50;;;;;;4998127;28;20113;-88
2021/05/30 02:37:23;;;;;;;3.17;2.30;;;9.50;77.90;;;;;;4998660;28;20430;-87
2021/05/30 02:39:49;;;;;;;4.22;2.15;;;9.50;78.10;;;;;;4998017;28;20022;-87
2021/05/30 02:42:15;;;;;;;3.83;2.22;;;9.40;78.10;;;;;;5016174;28;20053;-89
2021/05/30 02:44:41;;;;;;;6.80;2.47;;;9.50;78.50;;;;;;5015519;28;20018;-88
2021/05/30 02:47:07;;;;;;;2.92;1.75;;;9.50;78.50;;;;;;5015764;28;20022;-88
2021/05/30 02:49:33;;;;;;;6.28;2.38;;;9.50;78.10;;;;;;5017452;28;20382;-88
2021/05/30 02:52:00;;;;;;;3.20;2.13;;;9.50;78.20;;;;;;5017280;28;20026;-89
2021/05/30 02:54:26;;;;;;;3.45;2.35;;;9.60;78.40;;;;;;5001247;28;20044;-89
2021/05/30 02:56:52;;;;;;;4.82;2.05;;;9.60;78.50;;;;;;5007212;28;20034;-88
2021/05/30 02:59:18;;;;;;;6.78;2.38;;;9.60;77.80;;;;;;5028740;28;20049;-88
2021/05/30 03:01:44;;;;;;;3.42;2.35;;;9.70;77.80;;;;;;5037656;28;20053;-88
2021/05/30 03:04:10;;;;;;;3.95;2.63;;;9.60;77.70;;;;;;5036182;28;20394;-87
2021/05/30 03:06:36;;;;;;;4.20;2.85;;;9.60;77.70;;;;;;5035604;28;20022;-91
2021/05/30 03:09:03;;;;;;;5.82;2.22;;;9.60;77.90;;;;;;5036684;28;20384;-88
2021/05/30 03:11:28;;;;;;;3.17;2.08;;;9.70;77.90;;;;;;5037459;28;20037;-89
2021/05/30 03:13:54;;;;;;;3.33;1.98;;;9.70;77.40;;;;;;5035710;28;20142;-88
2021/05/30 03:16:25;;;;;;;4.03;2.33;;;9.70;77.50;;;;;;5042521;28;20022;-90
2021/05/30 03:18:52;;;;;;;7.07;2.47;;;9.70;77.60;;;;;;5045191;28;20033;-93
2021/05/30 03:21:18;;;;;;;5.30;2.90;;;9.70;77.70;;;;;;5027426;28;20025;-93
2021/05/30 03:23:44;;;;;;;3.90;2.00;;;9.80;77.60;;;;;;5041544;28;20034;-92
2021/05/30 03:26:10;;;;;;;5.55;2.22;;;9.80;77.20;;;;;;5029480;28;20063;-92
2021/05/30 03:28:37;;;;;;;2.10;1.83;;;9.90;77.30;;;;;;5030341;28;20029;-94
2021/05/30 03:31:03;;;;;;;2.97;2.47;;;9.90;77.10;;;;;;5027830;28;20022;-92
2021/05/30 03:33:29;;;;;;;4.75;2.90;;;9.80;77.90;;;;;;5025490;28;20033;-93
2021/05/30 03:35:58;;;;;;;3.65;2.08;;;9.90;77.50;;;;;;5028198;28;20026;-91
2021/05/30 03:38:26;;;;;;;5.97;2.38;;;9.90;77.60;;;;;;5047591;28;20023;-88
2021/05/30 03:41:01;;;;;;;4.22;2.42;;;9.90;77.30;;;;;;5046969;28;20010;-89
2021/05/30 03:43:28;;;;;;;5.82;2.58;;;10.00;76.80;;;;;;5027411;28;20018;-87
2021/05/30 03:45:54;;;;;;;4.38;2.92;;;9.90;77.00;;;;;;5046446;28;20389;-89
2021/05/30 03:48:20;;;;;;;5.28;2.80;;;9.90;77.30;;;;;;5026535;28;20056;-89
2021/05/30 03:50:49;;;;;;;4.88;2.17;;;9.90;77.20;;;;;;5027453;28;20047;-89
2021/05/30 03:53:20;;;;;;;4.78;2.30;;;9.90;76.70;;;;;;5048657;28;20044;-89
2021/05/30 03:55:47;;;;;;;3.58;2.17;;;9.90;77.40;;;;;;5058996;28;20040;-89
2021/05/30 03:58:15;;;;;;;3.47;2.70;;;9.90;78.10;;;;;;5029586;28;20025;-88
2021/05/30 04:00:41;;;;;;;3.63;2.20;;;10.10;76.90;;;;;;5044635;28;20038;-89
2021/05/30 04:03:08;;;;;;;3.08;2.33;;;10.10;76.80;;;;;;5041690;28;20033;-90
2021/05/30 04:05:34;;;;;;;3.83;1.95;;;10.20;76.50;;;;;;5044744;28;20028;-90
2021/05/30 04:08:00;;;;;;;2.83;2.20;;;10.20;76.60;;;;;;5055602;28;20025;-90
2021/05/30 04:10:29;;;;;;;3.65;3.00;;;10.10;76.80;;;;;;5035269;28;20036;-91
2021/05/30 04:12:57;;;;;;;4.18;2.15;;;10.20;77.00;;;;;;5052698;28;20033;-90
2021/05/30 04:15:23;;;;;;;3.75;2.38;;;10.30;76.50;;;;;;5034696;28;20363;-89
2021/05/30 04:17:50;;;;;;;5.22;2.50;;;10.30;76.20;;;;;;5048929;28;20352;-92
2021/05/30 04:20:17;;;;;;;4.03;2.65;;;10.30;76.30;;;;;;5040939;28;20029;-89
2021/05/30 04:22:44;;;;;;;;;;;10.40;76.20;;;;;;5050401;28;20021;-91
2021/05/30 04:25:11;;;;;;;3.45;2.58;;;10.40;76.40;;;;;;5029416;28;19920;-90
2021/05/30 04:27:38;;;;;;;4.55;2.63;;;10.50;76.10;;;;;;5053039;28;20072;-82
2021/05/30 04:30:08;;;;;;;7.05;2.35;;;10.50;75.00;;;;;;5042803;28;20014;-90
2021/05/30 04:32:34;;;;;;;4.22;2.58;;;10.60;75.00;;;;;;5036736;28;20034;-87
2021/05/30 04:35:01;;;;;;;6.43;2.67;;;10.70;74.40;;;;;;5053591;28;20037;-88
2021/05/30 04:37:27;;;;;;;4.75;2.63;;;10.80;74.10;;;;;;5043894;28;20025;-90
2021/05/30 04:39:53;;;;;;;6.68;2.50;;;10.90;73.90;;;;;;5049754;28;20029;-90
2021/05/30 04:42:19;;;;;;;3.92;2.17;;;10.80;73.30;;;;;;5039069;28;20041;-89
2021/05/30 04:44:45;;;;;;;1.10;1.00;;;10.70;73.30;;;;;;5036356;28;20013;-89
2021/05/30 04:47:12;;;;;;;6.43;2.70;;;10.60;73.90;;;;;;5008100;28;20029;-87
2021/05/30 04:49:39;;;;;;;6.25;2.58;;;10.50;74.30;;;;;;5041397;28;20032;-89
2021/05/30 04:52:08;;;;;;;3.75;2.60;;;10.60;74.30;;;;;;5041398;28;20030;-91
2021/05/30 04:54:34;;;;;;;3.80;2.00;;;10.60;74.30;;;;;;5021593;28;20025;-87
2021/05/30 04:57:00;;;;;;;4.22;2.25;;;10.70;74.30;;;;;;5037401;28;20037;-88
2021/05/30 04:59:25;;;;;;;5.40;2.45;;;10.70;74.00;;;;;;5037548;28;20046;-88
2021/05/30 05:01:51;;;;;;;8.98;2.28;;;10.90;73.80;;;;;;5037706;28;20540;-86
2021/05/30 05:04:17;;;;;;;2.95;2.25;;;11.00;73.30;;;;;;5039303;28;20018;-87
2021/05/30 05:06:43;;;;;;;5.47;2.05;;;11.00;73.20;;;;;;5040350;28;20028;-88
2021/05/30 05:09:09;;;;;;;5.45;3.25;;;11.00;72.80;;;;;;5038676;28;20021;-87
2021/05/30 05:11:35;;;;;;;4.75;2.22;;;10.90;73.00;;;;;;5037349;28;20025;-88
2021/05/30 05:14:00;;;;;;;11.25;2.83;;;10.70;73.50;;;;;;5038451;28;20040;-87
2021/05/30 05:16:28;;;;;;;3.50;2.35;;;10.60;74.00;;;;;;5020088;28;20032;-90
2021/05/30 05:18:54;;;;;;;6.50;2.60;;;10.60;74.10;;;;;;5019256;28;20070;-90
2021/05/30 05:21:20;;;;;;;3.05;1.92;;;10.60;75.20;;;;;;5037116;28;20025;-88
2021/05/30 05:23:46;;;;;;;6.80;2.75;;;10.70;74.00;;;;;;5037187;28;20044;-90
2021/05/30 05:26:12;;;;;;;4.22;2.38;;;10.80;73.70;;;;;;5036254;28;20070;-86
2021/05/30 05:28:38;;;;;;;6.10;2.90;;;10.90;73.50;;;;;;5037548;28;20208;-89
2021/05/30 05:31:04;;;;;;;2.95;2.00;;;10.90;73.60;;;;;;5030819;28;20528;-90
2021/05/30 05:33:30;;;;;;;2.88;2.33;;;10.80;73.40;;;;;;5039155;28;20026;-91
2021/05/30 05:35:56;;;;;;;5.40;2.08;;;10.80;73.60;;;;;;5041225;28;20367;-89
2021/05/30 05:38:22;;;;;;;3.40;2.50;;;10.70;73.50;;;;;;5046448;28;20032;-90
2021/05/30 05:40:48;;;;;;;4.97;2.50;;;10.70;74.00;;;;;;5043800;28;20017;-90
2021/05/30 05:43:15;;;;;;;2.55;1.83;;;10.60;74.10;;;;;;5021692;28;20022;-88
2021/05/30 05:45:41;;;;;;;6.82;2.03;;;10.60;73.70;;;;;;5039708;28;20028;-91
2021/05/30 05:48:15;;;;;;;3.15;2.47;;;10.60;74.10;;;;;;5049752;28;20025;-89
2021/05/30 05:50:44;;;;;;;3.67;2.35;;;10.60;74.20;;;;;;5035354;28;20022;-89
2021/05/30 05:53:10;;;;;;;5.80;2.72;;;10.70;74.50;;;;;;5054847;28;20049;-89
2021/05/30 05:55:36;;;;;;;6.63;1.80;;;10.80;73.60;;;;;;5039199;28;20370;-91
2021/05/30 05:58:03;;;;;;;3.97;2.17;;;10.80;72.90;;;;;;5042821;28;20036;-90
2021/05/30 06:00:32;;;;;;;3.70;2.37;;;10.80;73.10;;;;;;5030558;28;20133;-92
2021/05/30 06:02:58;;;;;;;3.58;2.90;;;10.80;73.30;;;;;;5029483;28;20037;-92
2021/05/30 06:05:27;;;;;;;3.67;1.95;;;10.80;73.30;;;;;;5041864;28;20056;-91
2021/05/30 06:07:56;;;;;;;7.53;2.30;;;10.80;72.40;;;;;;5045356;28;20025;-93
2021/05/30 06:10:25;;;;;;;5.95;2.50;;;10.60;73.20;;;;;;5029786;28;20028;-91
2021/05/30 06:12:52;;;;;;;10.30;3.05;;;10.60;73.90;;;;;;5034337;28;20101;-90
2021/05/30 06:15:20;;;;;;;5.95;2.97;;;10.60;73.80;;;;;;5048221;28;20021;-92
2021/05/30 06:17:51;;;;;;;;;;;10.80;73.60;;;;;;5029048;28;20031;-91
2021/05/30 06:20:19;;;;;;;4.28;2.20;;;10.90;73.20;;;;;;5043915;28;19905;-88
2021/05/30 06:22:46;;;;;;;5.47;3.43;;;10.90;72.90;;;;;;5043609;28;20048;-90
2021/05/30 06:25:12;;;;;;;3.60;2.85;;;11.00;72.00;;;;;;5044695;28;20087;-92
2021/05/30 06:27:38;;;;;;;3.30;2.20;;;11.00;72.00;;;;;;5024349;28;20025;-90
2021/05/30 06:30:05;;;;;;;5.25;2.50;;;11.00;72.10;;;;;;5018420;28;20026;-90
2021/05/30 06:32:32;;;;;;;4.20;2.30;;;11.10;71.70;;;;;;5022673;28;20029;-92
2021/05/30 06:35:00;;;;;;;4.65;2.50;;;11.30;71.20;;;;;;5010181;28;20041;-90
2021/05/30 06:37:26;;;;;;;13.35;3.33;;;11.30;71.00;;;;;;5038602;28;20021;-85
2021/05/30 06:39:52;;;;;;;10.70;2.42;;;11.20;70.50;;;;;;5058042;28;20030;-89
2021/05/30 06:42:19;;;;;;;8.25;2.40;;;11.00;71.10;;;;;;5056656;28;20025;-89
2021/05/30 06:44:45;;;;;;;5.93;2.25;;;10.80;71.60;;;;;;5055991;28;20018;-93
2021/05/30 06:47:11;;;;;;;5.55;2.50;;;10.80;71.80;;;;;;5006277;28;20049;-91
2021/05/30 06:49:36;;;;;;;6.03;2.40;;;10.80;71.90;;;;;;5009651;28;20038;-91
2021/05/30 06:52:03;;;;;;;4.22;2.60;;;10.70;72.30;;;;;;5004595;28;20073;-90
2021/05/30 06:54:35;;;;;;;6.53;2.85;;;10.70;72.20;;;;;;4981090;28;20117;-90
2021/05/30 06:57:02;;;;;;;3.08;1.83;;;10.60;72.60;;;;;;4981343;28;20030;-91
2021/05/30 06:59:28;;;;;;;3.03;2.10;;;10.60;72.70;;;;;;4968051;28;20125;-88
2021/05/30 07:01:54;;;;;;;7.57;2.70;;;10.50;72.50;;;;;;4981216;28;20623;-93
2021/05/30 07:04:22;;;;;;;5.03;2.42;;;10.30;73.60;;;;;;4998097;28;20030;-91
2021/05/30 07:06:48;;;;;;;6.10;2.33;;;10.40;73.90;;;;;;4998853;28;20507;-92
2021/05/30 07:09:14;;;;;;;9.98;3.58;;;10.50;73.50;;;;;;5002203;28;20045;-90
2021/05/30 07:11:40;;;;;;;2.72;2.20;;;10.60;72.80;;;;;;4982457;28;20507;-92
2021/05/30 07:14:05;;;;;;;9.77;3.33;;;10.60;73.00;;;;;;4981183;28;20038;-90
2021/05/30 07:16:32;;;;;;;7.45;2.22;;;10.70;72.80;;;;;;4978253;28;20023;-89
2021/05/30 07:18:58;;;;;;;6.80;2.70;;;10.80;72.40;;;;;;5023426;28;20528;-90
2021/05/30 07:21:24;;;;;;;4.38;2.70;;;10.90;72.10;;;;;;5035581;28;20022;-88
2021/05/30 07:23:52;;;;;;;3.05;2.55;;;10.90;72.30;;;;;;5021688;28;20028;-91
2021/05/30 07:26:18;;;;;;;2.25;1.88;;;10.90;72.10;;;;;;5043508;28;20033;-89
2021/05/30 07:28:49;;;;;;;6.90;2.20;;;10.90;71.90;;;;;;5024596;28;20398;-90
2021/05/30 07:31:15;;;;;;;3.15;1.92;;;10.90;71.40;;;;;;5035929;28;20068;-89
2021/05/30 07:33:41;;;;;;;8.07;2.22;;;10.90;71.60;;;;;;5024171;28;20084;-89
2021/05/30 07:36:07;;;;;;;6.03;2.65;;;10.80;71.80;;;;;;5044419;28;20022;-87
2021/05/30 07:38:36;;;;;;;8.45;2.58;;;10.80;71.80;;;;;;5027647;28;20022;-88
2021/05/30 07:41:03;;;;;;;4.18;2.17;;;10.90;72.70;;;;;;5042066;28;20056;-89
2021/05/30 07:43:29;;;;;;;3.75;2.25;;;11.00;71.20;;;;;;5039633;28;20025;-91
2021/05/30 07:45:55;;;;;;;3.63;2.28;;;10.90;71.60;;;;;;5043237;28;20024;-92
2021/05/30 07:48:21;;;;;;;3.60;1.80;;;10.90;71.80;;;;;;5051209;28;20017;-89
2021/05/30 07:50:51;;;;;;;8.85;2.40;;;11.00;71.30;;;;;;5052940;28;20018;-91
2021/05/30 07:53:20;;;;;;;4.65;1.98;;;11.10;71.20;;;;;;5049643;28;20038;-92
2021/05/30 07:55:49;;;;;;;4.15;2.25;;;11.20;70.20;;;;;;5038994;28;20017;-90
2021/05/30 07:58:15;;;;;;;2.63;2.17;;;11.30;70.20;;;;;;5039382;28;20493;-92
2021/05/30 08:00:42;;;;;;;7.80;3.40;;;11.40;69.80;;;;;;5020030;28;20054;-87
2021/05/30 08:03:07;;;;;;;6.00;2.10;;;11.50;69.20;;;;;;5040581;28;20030;-87
2021/05/30 08:05:33;;;;;;;7.78;2.67;;;11.70;68.20;;;;;;5021872;28;20022;-90
2021/05/30 08:07:59;;;;;;;4.00;2.20;;;11.80;67.70;;;;;;5048117;28;20029;-90
2021/05/30 08:10:29;;;;;;;3.05;2.00;;;11.90;67.10;;;;;;5058914;28;20012;-91
2021/05/30 08:12:54;;;;;;;12.70;2.78;;;12.00;66.90;;;;;;5028214;28;20448;-90
2021/05/30 08:15:21;;;;;;;7.53;2.42;;;12.10;66.10;;;;;;5041847;28;20053;-90
2021/05/30 08:17:47;;;;;;;3.42;1.75;;;12.10;65.80;;;;;;5047879;28;20032;-89
2021/05/30 08:20:14;;;;;;;9.57;2.58;;;12.30;65.60;;;;;;5024962;28;20025;-89
2021/05/30 08:22:40;;;;;;;4.95;2.15;;;12.70;64.80;;;;;;5024968;28;20025;-92
2021/05/30 08:25:07;;;;;;;8.88;2.35;;;13.10;63.00;;;;;;5040330;28;20052;-90
2021/05/30 08:27:34;;;;;;;4.45;2.28;;;13.90;61.00;;;;;;5023680;28;20025;-89
2021/05/30 08:30:02;;;;;;;6.00;2.28;;;14.50;58.60;;;;;;5036365;28;20076;-88
2021/05/30 08:32:28;;;;;;;2.42;1.60;;;15.00;56.30;;;;;;5021226;28;20040;-93
2021/05/30 08:34:54;;;;;;;5.15;1.83;;;16.30;54.00;;;;;;5021141;28;20026;-91
2021/05/30 08:37:40;;;;;;;7.25;2.10;;;16.50;50.40;;;;;;5013275;28;20368;-88
2021/05/30 08:40:07;;;;;;;4.82;2.00;;;16.30;50.90;;;;;;5037970;28;20108;-85
2021/05/30 08:42:33;;;;;;;2.63;1.80;;;17.00;50.40;;;;;;5037463;28;20029;-84
2021/05/30 08:44:59;;;;;;;3.22;1.77;;;17.60;48.40;;;;;;5037791;28;20056;-87
2021/05/30 08:47:25;;;;;;;6.72;1.90;;;17.90;47.30;;;;;;5039486;28;20079;-90
2021/05/30 08:49:51;;;;;;;3.63;2.47;;;18.60;45.80;;;;;;5057794;28;20010;-86
2021/05/30 08:52:18;;;;;;;4.40;1.75;;;19.00;44.60;;;;;;5059800;28;20522;-91
2021/05/30 08:54:44;;;;;;;3.50;1.63;;;19.10;43.50;;;;;;5042761;28;20081;-92
2021/05/30 08:57:10;;;;;;;7.40;2.83;;;20.40;42.70;;;;;;5042745;28;20057;-90
2021/05/30 08:59:41;;;;;;;2.50;1.50;;;21.60;39.20;;;;;;5021586;28;20037;-90
2021/05/30 09:02:13;;;;;;;2.72;1.30;;;21.60;38.40;;;;;;5017800;28;20584;-84
2021/05/30 09:04:45;;;;;;;3.90;1.50;;;21.00;38.50;;;;;;5026069;28;20017;-86
2021/05/30 09:07:11;;;;;;;2.83;1.25;;;21.00;39.10;;;;;;5038837;28;20033;-91
2021/05/30 09:09:42;;;;;;;10.75;2.03;;;20.60;38.40;;;;;;5024309;28;20510;-87
2021/05/30 09:12:25;;;;;;;3.95;1.65;;;21.20;38.50;;;;;;5025834;28;20030;-92
2021/05/30 09:14:52;;;;;;;6.07;2.35;;;22.20;37.20;;;;;;5032256;28;20116;-85
2021/05/30 09:17:18;;;;;;;2.95;1.42;;;23.00;35.50;;;;;;5020517;28;20048;-91
2021/05/30 09:19:55;;;;;;;5.15;1.27;;;22.60;34.10;;;;;;5021765;28;20069;-89
2021/05/30 09:22:26;;;;;;;1.42;1.20;;;22.50;34.80;;;;;;5027505;28;20558;-87
2021/05/30 09:24:52;;;;;;;6.60;1.60;;;22.20;33.60;;;;;;5015454;28;20056;-87
2021/05/30 09:27:20;;;;;;;6.57;1.83;;;20.80;35.40;;;;;;5029209;28;20025;-90
2021/05/30 09:30:06;;;;;;;3.42;1.92;;;20.50;36.60;;;;;;5030459;28;20038;-89
2021/05/30 09:32:36;;;;;;;11.82;2.17;;;20.30;37.40;;;;;;5019781;28;20082;-89
2021/05/30 09:35:06;;;;;;;7.13;1.80;;;19.40;38.30;;;;;;5011229;28;20037;-89
2021/05/30 09:37:32;;;;;;;4.80;1.65;;;18.40;39.50;;;;;;5019986;28;20030;-91
2021/05/30 09:40:04;;;;;;;6.20;1.88;;;17.50;40.90;;;;;;5029391;28;20034;-89
2021/05/30 09:42:33;;;;;;;11.43;2.05;;;17.00;43.10;;;;;;5043369;28;20069;-91
2021/05/30 09:45:10;;;;;;;5.85;1.33;;;16.80;43.80;;;;;;5044770;28;20041;-89
2021/05/30 09:47:38;;;;;;;6.75;1.70;;;16.30;43.60;;;;;;5026550;28;20022;-89
2021/05/30 09:50:09;;;;;;;10.80;1.90;;;16.10;44.40;;;;;;5028691;28;20037;-90
2021/05/30 09:52:40;;;;;;;7.50;1.42;;;16.00;44.80;;;;;;5065554;28;20038;-89
2021/05/30 09:55:24;;;;;;;6.10;1.60;;;16.20;44.80;;;;;;5024158;28;20030;-89
2021/05/30 09:58:19;;;;;;;7.32;1.95;;;16.20;43.80;;;;;;5005470;28;20141;-88
2021/05/30 10:00:58;;;;;;;3.03;1.63;;;16.50;43.80;;;;;;5038939;28;20158;-90
2021/05/30 10:03:29;;;;;;;5.57;1.77;;;16.80;43.40;;;;;;5054785;28;20489;-91
2021/05/30 10:05:55;;;;;;;11.63;1.80;;;17.90;42.80;;;;;;5050337;28;20017;-87
2021/05/30 10:08:25;;;;;;;2.05;1.30;;;18.70;39.10;;;;;;5055219;28;20005;-90
2021/05/30 10:10:51;;;;;;;7.15;1.95;;;18.90;38.30;;;;;;5047061;28;20035;-89
2021/05/30 10:13:17;;;;;;;4.30;1.40;;;18.40;38.70;;;;;;5027338;28;20030;-89
2021/05/30 10:15:43;;;;;;;5.82;1.83;;;17.70;38.90;;;;;;5040912;28;20022;-89
2021/05/30 10:18:34;;;;;;;2.70;1.65;;;18.10;40.40;;;;;;5054234;28;20044;-92
2021/05/30 10:21:01;;;;;;;6.20;1.63;;;19.90;38.60;;;;;;5022581;28;20029;-88
2021/05/30 10:31:35;;;;;;;5.47;1.27;;;19.50;36.10;;;;;;5060670;28;20167;-89
2021/05/30 10:34:11;;;;;;;1.42;0.90;;;18.20;38.10;;;;;;5055396;28;20029;-90
2021/05/30 10:40:34;;;;;;;5.78;1.38;;;17.10;40.00;;;;;;4999053;28;20430;-89
2021/05/30 10:43:12;;;;;;;3.90;1.40;;;16.50;41.10;;;;;;4999306;28;20594;-91
2021/05/30 10:45:46;;;;;;;10.48;1.90;;;16.10;42.10;;;;;;4979558;28;20038;-92
2021/05/30 10:48:19;;;;;;;5.05;1.45;;;15.90;42.50;;;;;;4995246;28;20037;-88
2021/05/30 10:51:02;;;;;;;4.75;1.90;;;16.10;42.40;;;;;;4999252;28;20039;-90
2021/05/30 10:53:41;;;;;;;6.40;2.03;;;16.30;42.30;;;;;;5001552;28;20546;-90
2021/05/30 10:56:24;;;;;;;5.53;2.05;;;16.40;43.50;;;;;;4994271;28;20030;-89
2021/05/30 10:59:15;;;;;;;4.55;1.58;;;16.50;41.70;;;;;;4992936;28;20049;-89
2021/05/30 11:01:47;;;;;;;4.97;1.35;;;16.40;41.00;;;;;;5000340;28;20061;-88
2021/05/30 11:07:29;;;;;;;6.43;1.20;;;16.00;41.20;;;;;;5016863;28;20023;-89
2021/05/30 11:09:57;;;;;;;6.50;1.67;;;16.10;41.80;;;;;;5011785;28;20038;-89
2021/05/30 11:12:31;;;;;;;6.20;1.77;;;16.30;41.60;;;;;;4980374;28;20064;-90
2021/05/30 11:15:13;;;;;;;6.82;1.45;;;16.30;40.90;;;;;;4968143;28;20449;-89
2021/05/30 11:17:49;;;;;;;14.63;1.77;;;16.30;41.40;;;;;;5047469;28;20033;-91
2021/05/30 11:20:21;;;;;;;11.07;1.90;;;16.20;41.20;;;;;;5061464;28;20021;-90
2021/05/30 11:23:05;;;;;;;5.95;1.85;;;16.30;41.30;;;;;;5058568;28;20096;-89
2021/05/30 11:25:46;;;;;;;9.05;2.00;;;16.30;40.30;;;;;;5059232;28;20017;-88
2021/05/30 11:28:21;;;;;;;11.30;1.95;;;16.10;40.90;;;;;;5076569;28;20395;-88
2021/05/30 11:31:19;;;;;;;2.72;1.08;;;15.90;41.30;;;;;;5076475;28;20036;-90
2021/05/30 11:33:59;;;;;;;1.98;1.10;;;15.60;41.10;;;;;;5032757;28;20068;-90
2021/05/30 11:36:33;;;;;;;2.20;1.20;;;15.30;41.40;;;;;;5074217;28;20025;-89
2021/05/30 11:39:18;;;;;;;10.55;2.28;;;15.10;41.60;;;;;;5066926;28;20021;-89
2021/05/30 11:41:55;;;;;;;8.38;1.85;;;15.30;42.80;;;;;;5076151;28;20017;-89
2021/05/30 11:44:23;;;;;;;;;;;15.80;42.00;;;;;;5077813;28;20084;-90
2021/05/30 11:46:52;;;;;;;;;;;16.00;41.80;;;;;;5079712;28;19905;-91
2021/05/30 11:49:26;;;;;;;11.18;1.98;;;15.90;41.10;;;;;;5084162;28;19934;-89
2021/05/30 11:52:16;;;;;;;3.78;1.85;;;15.60;41.90;;;;;;5094908;28;20024;-88
2021/05/30 11:54:42;;;;;;;9.07;1.90;;;15.50;41.80;;;;;;5086604;28;20024;-88
2021/05/30 11:57:11;;;;;;;4.00;1.60;;;15.40;42.60;;;;;;5080996;28;20039;-92
2021/05/30 11:59:43;;;;;;;6.68;1.88;;;15.40;43.10;;;;;;5084735;28;20025;-85
2021/05/30 12:02:10;;;;;;;9.23;1.45;;;15.30;42.40;;;;;;5084442;28;20522;-88
2021/05/30 12:04:39;;;;;;;5.63;1.80;;;15.20;42.60;;;;;;5079792;28;20080;-86
2021/05/30 12:07:11;;;;;;;8.63;1.95;;;15.20;43.20;;;;;;5078060;28;20028;-84
2021/05/30 12:09:58;;;;;;;3.72;1.95;;;15.20;43.40;;;;;;5078550;28;20034;-89
2021/05/30 12:12:37;;;;;;;4.05;1.92;;;15.50;43.60;;;;;;5086086;28;20028;-85
2021/05/30 12:15:20;;;;;;;6.38;1.35;;;15.50;42.90;;;;;;5075569;28;20047;-84
2021/05/30 12:17:54;;;;;;;4.82;1.52;;;15.30;41.50;;;;;;5076723;28;20020;-85
2021/05/30 12:20:25;;;;;;;3.97;1.52;;;15.10;41.80;;;;;;5072924;28;20017;-82
2021/05/30 12:23:14;;;;;;;6.63;1.77;;;15.00;42.20;;;;;;5078269;28;20036;-82
2021/05/30 12:26:10;;;;;;;5.63;1.50;;;14.90;42.10;;;;;;5056256;28;20028;-84
2021/05/30 12:28:39;;;;;;;4.43;1.23;;;14.90;42.50;;;;;;5069892;28;20110;-85
2021/05/30 12:31:07;;;;;;;6.70;1.58;;;14.90;42.90;;;;;;5061856;28;20017;-83
2021/05/30 12:33:55;;;;;;;7.55;1.70;;;15.00;42.60;;;;;;5067524;28;20068;-83
2021/05/30 12:36:45;;;;;;;8.80;1.60;;;15.20;42.60;;;;;;5071437;28;20043;-84
2021/05/30 12:39:31;;;;;;;5.13;1.45;;;15.20;42.00;;;;;;5070112;28;20078;-85
2021/05/30 12:42:23;;;;;;;8.10;1.35;;;15.20;42.00;;;;;;5076952;28;20419;-85
2021/05/30 12:44:54;;;;;;;5.28;1.73;;;15.20;41.40;;;;;;5034059;28;20164;-87
2021/05/30 12:47:24;;;;;;;9.45;1.67;;;15.00;41.60;;;;;;5035119;28;20111;-86
2021/05/30 12:49:59;;;;;;;3.38;1.52;;;14.90;42.00;;;;;;5018120;28;20039;-87
2021/05/30 12:52:26;;;;;;;3.70;1.20;;;14.60;41.80;;;;;;5017270;28;20033;-85
2021/05/30 12:55:06;;;;;;;5.03;1.38;;;14.50;42.40;;;;;;5023789;28;20561;-87
2021/05/30 12:57:37;;;;;;;4.00;1.10;;;14.40;42.80;;;;;;5032992;28;20458;-85
2021/05/30 13:00:06;;;;;;;7.70;1.67;;;14.60;42.90;;;;;;5033415;28;20022;-86
2021/05/30 13:02:32;;;;;;;5.85;1.58;;;14.80;42.30;;;;;;5033408;28;20172;-85
2021/05/30 13:04:58;;;;;;;6.07;1.40;;;15.00;42.10;;;;;;5017448;28;20033;-84
2021/05/30 13:07:31;;;;;;;4.43;1.38;;;15.20;40.90;;;;;;5033685;28;20037;-86
2021/05/30 13:10:00;;;;;;;7.38;2.25;;;15.30;40.80;;;;;;5033542;28;20121;-85
2021/05/30 13:12:29;;;;;;;5.93;1.10;;;15.20;41.40;;;;;;5033517;28;20068;-87
2021/05/30 13:15:12;;;;;;;5.18;1.40;;;15.00;41.60;;;;;;5023195;28;20457;-86